createdAt,value
2017-07-23T00:02:15.385Z,66.60
2017-07-23T00:04:41.979Z,64.70
2017-07-23T00:07:08.547Z,65.50
2017-07-23T00:09:35.157Z,64.70
2017-07-23T00:12:01.853Z,64.70
2017-07-23T00:14:28.694Z,64.30
2017-07-23T00:17:00.265Z,64.80
2017-07-23T00:19:26.996Z,64.50
2017-07-23T00:21:53.602Z,66.00
2017-07-23T00:24:20.264Z,64.30
2017-07-23T00:26:46.873Z,64.70
2017-07-23T00:29:13.440Z,65.20
2017-07-23T00:31:42.509Z,64.90
2017-07-23T00:34:09.129Z,64.50
2017-07-23T00:36:35.718Z,65.10
2017-07-23T00:39:02.340Z,65.00
2017-07-23T00:41:28.953Z,64.60
2017-07-23T00:43:55.529Z,64.20
2017-07-23T00:46:27.608Z,65.10
2017-07-23T00:48:54.222Z,65.40
2017-07-23T00:51:20.804Z,64.60
2017-07-23T00:53:47.401Z,65.10
2017-07-23T00:56:15.064Z,64.30
2017-07-23T00:58:44.577Z,64.40
2017-07-23T01:01:19.197Z,64.80
2017-07-23T01:03:45.817Z,64.80
2017-07-23T01:06:12.385Z,64.70
2017-07-23T01:08:38.967Z,63.50
2017-07-23T01:11:11.920Z,64.80
2017-07-23T01:13:38.501Z,65.10
2017-07-23T01:16:05.012Z,65.90
2017-07-23T01:18:31.622Z,66.00
2017-07-23T01:20:58.216Z,64.60
2017-07-23T01:23:25.528Z,65.00
2017-07-23T01:25:52.069Z,65.00
2017-07-23T01:28:18.669Z,65.20
2017-07-23T01:30:45.464Z,65.00
2017-07-23T01:33:12.086Z,64.90
2017-07-23T01:35:38.673Z,64.80
2017-07-23T01:38:05.305Z,65.20
2017-07-23T01:40:32.033Z,64.80
2017-07-23T01:43:01.921Z,65.50
2017-07-23T01:45:28.640Z,65.80
2017-07-23T01:47:55.189Z,66.20
2017-07-23T01:50:21.777Z,66.40
2017-07-23T01:52:48.404Z,65.00
2017-07-23T01:55:15.272Z,65.00
2017-07-23T01:57:42.066Z,65.90
2017-07-23T02:00:09.425Z,65.00
2017-07-23T02:02:36.731Z,64.20
2017-07-23T02:05:03.326Z,64.80
2017-07-23T02:07:30.670Z,66.90
2017-07-23T02:09:57.252Z,66.80
2017-07-23T02:12:23.881Z,67.40
2017-07-23T02:14:50.432Z,66.90
2017-07-23T02:17:17.111Z,67.30
2017-07-23T02:19:43.717Z,66.50
2017-07-23T02:22:10.529Z,66.40
2017-07-23T02:24:37.210Z,65.90
2017-07-23T02:27:03.800Z,66.70
2017-07-23T02:29:30.409Z,66.20
2017-07-23T02:31:58.944Z,65.60
2017-07-23T02:34:25.585Z,65.60
2017-07-23T02:36:55.109Z,65.30
2017-07-23T02:39:21.936Z,64.80
2017-07-23T02:41:48.492Z,66.40
2017-07-23T02:44:15.717Z,66.30
2017-07-23T02:46:42.260Z,67.30
2017-07-23T02:49:08.752Z,66.60
2017-07-23T02:51:35.924Z,66.80
2017-07-23T02:54:02.614Z,67.20
2017-07-23T02:56:29.261Z,67.40
2017-07-23T02:58:55.941Z,67.70
2017-07-23T03:01:24.064Z,68.10
2017-07-23T03:03:51.904Z,67.70
2017-07-23T03:06:18.477Z,67.00
2017-07-23T03:08:45.076Z,68.40
2017-07-23T03:11:11.643Z,68.60
2017-07-23T03:13:38.211Z,68.40
2017-07-23T03:16:06.328Z,68.20
2017-07-23T03:18:37.475Z,67.70
2017-07-23T03:21:06.684Z,67.40
2017-07-23T03:23:33.838Z,66.60
2017-07-23T03:26:00.976Z,66.70
2017-07-23T03:28:27.356Z,66.70
2017-07-23T03:30:53.738Z,66.70
2017-07-23T03:33:20.145Z,66.80
2017-07-23T03:35:46.485Z,67.60
2017-07-23T03:38:12.831Z,67.90
2017-07-23T03:40:39.176Z,67.50
2017-07-23T03:43:05.548Z,66.70
2017-07-23T03:45:31.932Z,66.70
2017-07-23T03:47:58.331Z,66.50
2017-07-23T03:50:24.666Z,67.00
2017-07-23T03:52:51.075Z,67.90
2017-07-23T03:55:17.472Z,67.00
2017-07-23T03:57:43.885Z,68.20
2017-07-23T04:00:10.324Z,67.50
2017-07-23T04:02:36.712Z,67.40
2017-07-23T04:05:03.093Z,67.30
2017-07-23T04:07:29.474Z,67.60
2017-07-23T04:09:55.842Z,67.60
2017-07-23T04:12:22.204Z,66.20
2017-07-23T04:14:48.697Z,68.40
2017-07-23T04:17:15.072Z,67.70
2017-07-23T04:19:42.253Z,66.90
2017-07-23T04:22:08.638Z,66.60
2017-07-23T04:24:35.020Z,66.60
2017-07-23T04:27:01.371Z,66.40
2017-07-23T04:29:27.710Z,67.00
2017-07-23T04:31:54.172Z,66.00
2017-07-23T04:34:20.519Z,66.10
2017-07-23T04:36:46.901Z,66.90
2017-07-23T04:39:13.245Z,66.10
2017-07-23T04:41:39.620Z,65.90
2017-07-23T04:44:06.798Z,65.60
2017-07-23T04:46:33.600Z,65.80
2017-07-23T04:49:00.048Z,65.70
2017-07-23T04:51:26.428Z,65.60
2017-07-23T04:53:53.504Z,65.90
2017-07-23T04:56:19.931Z,65.90
2017-07-23T04:58:46.315Z,66.40
2017-07-23T05:01:12.665Z,66.50
2017-07-23T05:03:39.034Z,66.70
2017-07-23T05:06:05.396Z,65.80
2017-07-23T05:08:31.739Z,65.60
2017-07-23T05:11:01.685Z,65.20
2017-07-23T05:13:28.037Z,65.50
2017-07-23T05:15:54.549Z,64.80
2017-07-23T05:18:20.917Z,65.70
2017-07-23T05:20:47.292Z,65.80
2017-07-23T05:23:14.487Z,64.70
2017-07-23T05:25:40.840Z,64.70
2017-07-23T05:28:07.225Z,64.30
2017-07-23T05:30:33.637Z,65.00
2017-07-23T05:33:01.587Z,65.00
2017-07-23T05:35:28.178Z,65.30
2017-07-23T05:37:54.913Z,64.00
2017-07-23T05:40:21.248Z,63.80
2017-07-23T05:42:47.682Z,63.10
2017-07-23T05:45:14.147Z,62.10
2017-07-23T05:47:41.301Z,64.10
2017-07-23T05:50:07.636Z,64.00
2017-07-23T05:52:34.088Z,65.70
2017-07-23T05:55:00.433Z,64.60
2017-07-23T05:57:26.817Z,64.40
2017-07-23T05:59:53.951Z,62.50
2017-07-23T06:02:20.346Z,62.50
2017-07-23T06:04:46.785Z,63.50
2017-07-23T06:07:13.138Z,65.50
2017-07-23T06:09:39.493Z,63.00
2017-07-23T06:12:05.872Z,65.60
2017-07-23T06:14:32.286Z,64.80
2017-07-23T06:16:58.721Z,64.00
2017-07-23T06:19:25.089Z,64.10
2017-07-23T06:21:51.473Z,62.30
2017-07-23T06:24:17.822Z,61.70
2017-07-23T06:26:50.813Z,61.30
2017-07-23T06:29:17.176Z,62.10
2017-07-23T06:31:43.575Z,60.80
2017-07-23T06:34:09.920Z,64.00
2017-07-23T06:36:36.995Z,60.90
2017-07-23T06:39:03.385Z,60.80
2017-07-23T06:41:29.732Z,60.90
2017-07-23T06:43:56.080Z,62.90
2017-07-23T06:46:29.144Z,59.70
2017-07-23T06:48:55.584Z,61.50
2017-07-23T06:51:21.924Z,60.10
2017-07-23T06:53:48.256Z,59.30
2017-07-23T06:56:14.742Z,59.00
2017-07-23T06:58:41.103Z,59.00
2017-07-23T07:01:07.464Z,60.90
2017-07-23T07:03:36.441Z,59.80
2017-07-23T07:06:02.832Z,59.70
2017-07-23T07:08:29.173Z,61.50
2017-07-23T07:10:58.392Z,59.20
2017-07-23T07:13:24.793Z,59.30
2017-07-23T07:15:51.123Z,58.70
2017-07-23T07:18:17.464Z,57.00
2017-07-23T07:20:43.788Z,57.50
2017-07-23T07:23:10.112Z,57.90
2017-07-23T07:25:36.426Z,56.60
2017-07-23T07:28:02.736Z,57.40
2017-07-23T07:30:29.086Z,56.20
2017-07-23T07:32:55.396Z,54.80
2017-07-23T07:35:21.718Z,53.60
2017-07-23T07:37:48.016Z,53.80
2017-07-23T07:40:14.376Z,52.30
2017-07-23T07:42:40.705Z,54.30
2017-07-23T07:45:07.057Z,53.60
2017-07-23T07:47:35.835Z,53.80
2017-07-23T07:50:02.202Z,54.40
2017-07-23T07:52:28.543Z,54.90
2017-07-23T07:54:54.914Z,54.20
2017-07-23T07:57:21.240Z,54.20
2017-07-23T07:59:47.628Z,55.60
2017-07-23T08:02:21.023Z,54.40
2017-07-23T08:04:47.437Z,54.10
2017-07-23T08:07:13.825Z,55.50
2017-07-23T08:09:40.946Z,54.80
2017-07-23T08:12:07.310Z,54.60
2017-07-23T08:14:33.739Z,55.80
2017-07-23T08:17:00.096Z,53.80
2017-07-23T08:19:26.441Z,53.70
2017-07-23T08:21:52.784Z,51.40
2017-07-23T08:24:19.180Z,50.80
2017-07-23T08:26:45.569Z,50.50
2017-07-23T08:29:12.056Z,50.30
2017-07-23T08:31:38.384Z,50.70
2017-07-23T08:34:04.713Z,49.90
2017-07-23T08:36:33.817Z,49.20
2017-07-23T08:39:00.177Z,50.20
2017-07-23T08:41:26.506Z,49.70
2017-07-23T08:43:52.841Z,49.70
2017-07-23T08:46:19.184Z,45.60
2017-07-23T08:48:45.558Z,45.10
2017-07-23T08:51:17.114Z,44.10
2017-07-23T08:53:44.225Z,43.80
2017-07-23T08:56:10.603Z,43.80
2017-07-23T08:58:36.982Z,44.30
2017-07-23T09:01:03.391Z,45.20
2017-07-23T09:03:29.726Z,43.90
2017-07-23T09:05:56.061Z,45.90
2017-07-23T09:08:22.450Z,46.20
2017-07-23T09:10:48.775Z,45.20
2017-07-23T09:13:15.146Z,46.00
2017-07-23T09:15:41.493Z,47.70
2017-07-23T09:18:07.840Z,47.70
2017-07-23T09:20:34.907Z,46.40
2017-07-23T09:23:01.245Z,46.40
2017-07-23T09:25:27.553Z,46.20
2017-07-23T09:27:59.901Z,46.90
2017-07-23T09:30:26.261Z,47.30
2017-07-23T09:32:52.695Z,45.30
2017-07-23T09:35:19.038Z,47.20
2017-07-23T09:37:45.380Z,45.70
2017-07-23T09:40:11.741Z,45.80
2017-07-23T09:42:41.368Z,44.80
2017-07-23T09:45:07.745Z,47.80
2017-07-23T09:47:34.325Z,44.60
2017-07-23T09:50:00.669Z,44.70
2017-07-23T09:52:27.737Z,44.10
2017-07-23T09:54:54.113Z,44.10
2017-07-23T09:57:20.518Z,43.40
2017-07-23T09:59:46.941Z,45.40
2017-07-23T10:02:13.381Z,43.70
2017-07-23T10:04:40.120Z,44.60
2017-07-23T10:07:06.480Z,46.00
2017-07-23T10:09:33.669Z,44.80
2017-07-23T10:12:00.263Z,44.90
2017-07-23T10:14:26.714Z,43.20
2017-07-23T10:16:56.766Z,43.60
2017-07-23T10:19:23.141Z,44.20
2017-07-23T10:21:49.503Z,45.40
2017-07-23T10:24:15.864Z,46.90
2017-07-23T10:26:42.204Z,46.30
2017-07-23T10:29:08.578Z,45.90
2017-07-23T10:31:34.978Z,45.90
2017-07-23T10:34:01.298Z,46.90
2017-07-23T10:36:27.733Z,47.20
2017-07-23T10:38:55.806Z,45.00
2017-07-23T10:41:23.010Z,44.10
2017-07-23T10:43:49.380Z,44.00
2017-07-23T10:48:48.356Z,44.00
2017-07-23T10:51:14.734Z,43.80
2017-07-23T10:53:41.124Z,43.30
2017-07-23T10:56:07.445Z,44.60
2017-07-23T10:58:33.888Z,45.70
2017-07-23T11:01:00.299Z,45.50
2017-07-23T11:03:27.516Z,46.10
2017-07-23T11:05:53.827Z,48.10
2017-07-23T11:08:20.940Z,45.70
2017-07-23T11:10:47.268Z,45.50
2017-07-23T11:13:13.604Z,46.50
2017-07-23T11:15:40.070Z,42.50
2017-07-23T11:18:07.180Z,44.10
2017-07-23T11:20:34.654Z,44.00
2017-07-23T11:23:02.067Z,43.90
2017-07-23T11:25:28.500Z,43.90
2017-07-23T11:27:54.916Z,45.70
2017-07-23T11:30:22.063Z,43.10
2017-07-23T11:32:48.384Z,42.10
2017-07-23T11:35:14.710Z,43.30
2017-07-23T11:37:53.174Z,41.80
2017-07-23T11:40:19.532Z,40.40
2017-07-23T11:42:45.881Z,42.80
2017-07-23T11:45:12.195Z,42.60
2017-07-23T11:47:38.573Z,43.70
2017-07-23T11:50:04.901Z,41.70
2017-07-23T11:52:31.952Z,44.10
2017-07-23T11:54:59.104Z,44.40
2017-07-23T11:57:26.225Z,41.10
2017-07-23T11:59:52.553Z,41.00
2017-07-23T12:02:18.886Z,43.80
2017-07-23T12:04:45.248Z,40.40
2017-07-23T12:07:12.325Z,40.10
2017-07-23T12:09:38.668Z,40.10
2017-07-23T12:12:05.089Z,42.30
2017-07-23T12:14:31.448Z,41.00
2017-07-23T12:16:58.705Z,42.40
2017-07-23T12:19:25.014Z,40.00
2017-07-23T12:21:51.350Z,38.60
2017-07-23T12:24:17.664Z,41.20
2017-07-23T12:26:43.981Z,38.70
2017-07-23T12:29:10.317Z,41.30
2017-07-23T12:31:36.697Z,39.50
2017-07-23T12:34:03.008Z,38.60
2017-07-23T12:36:29.369Z,40.10
2017-07-23T12:38:55.707Z,41.00
2017-07-23T12:41:22.110Z,41.00
2017-07-23T12:43:48.440Z,40.90
2017-07-23T12:46:14.751Z,42.30
2017-07-23T12:48:41.822Z,43.10
2017-07-23T12:51:08.347Z,42.80
2017-07-23T12:53:35.456Z,43.50
2017-07-23T12:56:05.476Z,42.90
2017-07-23T12:58:31.840Z,42.80
2017-07-23T13:00:58.182Z,43.70
2017-07-23T13:03:25.299Z,41.90
2017-07-23T13:05:51.657Z,41.30
2017-07-23T13:08:17.968Z,41.20
2017-07-23T13:10:44.296Z,39.80
2017-07-23T13:13:10.693Z,41.70
2017-07-23T13:15:37.075Z,41.70
2017-07-23T13:18:03.439Z,42.20
2017-07-23T13:20:29.840Z,41.00
2017-07-23T13:22:56.917Z,39.00
2017-07-23T13:25:23.264Z,38.80
2017-07-23T13:27:50.374Z,38.90
2017-07-23T13:30:23.035Z,38.80
2017-07-23T13:32:49.337Z,41.10
2017-07-23T13:35:15.696Z,41.00
2017-07-23T13:37:42.787Z,40.70
2017-07-23T13:40:09.136Z,40.70
2017-07-23T13:42:38.283Z,40.80
2017-07-23T13:45:07.842Z,41.40
2017-07-23T13:47:34.545Z,41.10
2017-07-23T13:50:01.875Z,40.90
2017-07-23T13:52:28.419Z,40.80
2017-07-23T13:54:55.012Z,39.80
2017-07-23T13:57:21.575Z,41.00
2017-07-23T13:59:48.184Z,38.60
2017-07-23T14:02:19.871Z,40.00
2017-07-23T14:04:46.474Z,41.10
2017-07-23T14:07:13.009Z,39.60
2017-07-23T14:09:40.320Z,39.10
2017-07-23T14:12:06.866Z,38.90
2017-07-23T14:14:33.516Z,41.10
2017-07-23T14:17:00.146Z,40.60
2017-07-23T14:19:26.742Z,40.00
2017-07-23T14:21:54.589Z,41.00
2017-07-23T14:24:23.403Z,40.70
2017-07-23T14:26:50.000Z,41.20
2017-07-23T14:29:16.582Z,41.20
2017-07-23T14:31:43.246Z,39.80
2017-07-23T14:34:09.775Z,39.70
2017-07-23T14:36:36.357Z,38.90
2017-07-23T14:39:06.593Z,38.40
2017-07-23T14:41:33.940Z,41.10
2017-07-23T14:44:01.275Z,40.10
2017-07-23T14:46:27.900Z,40.10
2017-07-23T14:48:54.449Z,39.20
2017-07-23T14:51:21.072Z,39.80
2017-07-23T14:53:48.305Z,41.00
2017-07-23T14:56:15.597Z,40.40
2017-07-23T14:58:42.181Z,40.50
2017-07-23T15:01:09.541Z,41.40
2017-07-23T15:03:36.141Z,41.40
2017-07-23T15:06:02.710Z,45.50
2017-07-23T15:08:30.292Z,50.00
2017-07-23T15:10:56.839Z,51.70
2017-07-23T15:13:23.413Z,52.00
2017-07-23T15:15:50.027Z,53.10
2017-07-23T15:18:16.624Z,53.90
2017-07-23T15:20:43.336Z,55.70
2017-07-23T15:23:09.953Z,56.40
2017-07-23T15:25:38.532Z,54.60
2017-07-23T15:28:05.357Z,56.20
2017-07-23T15:30:33.240Z,57.10
2017-07-23T15:32:59.757Z,56.20
2017-07-23T15:35:26.389Z,55.30
2017-07-23T15:37:52.965Z,55.50
2017-07-23T15:40:19.570Z,55.40
2017-07-23T15:42:46.148Z,55.10
2017-07-23T15:45:13.486Z,54.40
2017-07-23T15:47:40.046Z,54.40
2017-07-23T15:50:06.633Z,55.70
2017-07-23T15:52:33.185Z,52.80
2017-07-23T15:54:59.804Z,51.20
2017-07-23T15:57:26.362Z,52.50
2017-07-23T15:59:52.937Z,49.50
2017-07-23T16:02:19.564Z,51.20
2017-07-23T16:04:46.125Z,52.60
2017-07-23T16:07:12.682Z,52.60
2017-07-23T16:09:40.803Z,52.60
2017-07-23T16:12:07.401Z,50.70
2017-07-23T16:14:34.244Z,50.90
2017-07-23T16:17:01.580Z,50.90
2017-07-23T16:19:28.146Z,50.70
2017-07-23T16:21:55.631Z,50.30
2017-07-23T16:24:22.241Z,50.20
2017-07-23T16:26:48.820Z,50.90
2017-07-23T16:29:15.409Z,51.10
2017-07-23T16:31:41.975Z,50.60
2017-07-23T16:34:08.559Z,49.30
2017-07-23T16:36:35.179Z,51.10
2017-07-23T16:39:01.735Z,49.60
2017-07-23T16:41:28.344Z,49.50
2017-07-23T16:43:57.426Z,49.20
2017-07-23T16:46:24.029Z,52.00
2017-07-23T16:48:50.714Z,49.40
2017-07-23T16:51:17.321Z,48.70
2017-07-23T16:53:43.925Z,48.60
2017-07-23T16:56:10.380Z,49.70
2017-07-23T16:58:37.652Z,48.60
2017-07-23T17:01:09.288Z,48.60
2017-07-23T17:03:35.836Z,47.70
2017-07-23T17:06:02.418Z,48.60
2017-07-23T17:08:29.004Z,49.20
2017-07-23T17:10:55.476Z,49.50
2017-07-23T17:13:22.024Z,48.90
2017-07-23T17:15:48.603Z,48.30
2017-07-23T17:18:15.166Z,49.40
2017-07-23T17:20:42.196Z,50.20
2017-07-23T17:23:08.739Z,50.10
2017-07-23T17:25:35.307Z,50.60
2017-07-23T17:28:01.945Z,49.50
2017-07-23T17:30:28.479Z,49.90
2017-07-23T17:32:55.076Z,51.10
2017-07-23T17:35:21.648Z,50.60
2017-07-23T17:37:48.270Z,50.70
2017-07-23T17:42:47.708Z,49.50
2017-07-23T17:45:14.247Z,49.70
2017-07-23T17:47:41.554Z,48.50
2017-07-23T17:50:08.168Z,48.50
2017-07-23T17:52:34.868Z,48.10
2017-07-23T17:55:01.489Z,47.40
2017-07-23T17:57:28.773Z,46.50
2017-07-23T17:59:56.249Z,46.50
2017-07-23T18:02:22.812Z,45.60
2017-07-23T18:04:49.424Z,46.10
2017-07-23T18:07:15.989Z,47.20
2017-07-23T18:09:43.295Z,45.80
2017-07-23T18:12:09.845Z,45.90
2017-07-23T18:14:36.615Z,45.90
2017-07-23T18:17:05.873Z,46.30
2017-07-23T18:19:33.750Z,46.00
2017-07-23T18:22:00.320Z,46.00
2017-07-23T18:24:26.884Z,44.90
2017-07-23T18:26:53.527Z,45.20
2017-07-23T18:29:19.992Z,44.50
2017-07-23T18:31:52.776Z,43.10
2017-07-23T18:34:19.336Z,44.10
2017-07-23T18:36:45.915Z,43.50
2017-07-23T18:39:12.505Z,44.30
2017-07-23T18:41:39.095Z,44.30
2017-07-23T18:44:05.621Z,43.50
2017-07-23T18:46:32.157Z,44.60
2017-07-23T18:48:58.728Z,44.70
2017-07-23T18:53:59.892Z,46.20
2017-07-23T18:56:26.456Z,45.10
2017-07-23T18:58:53.029Z,45.20
2017-07-23T19:01:19.601Z,44.50
2017-07-23T19:03:46.053Z,45.30
2017-07-23T19:06:14.309Z,44.80
2017-07-23T19:08:40.694Z,46.00
2017-07-23T19:11:07.027Z,45.10
2017-07-23T19:13:34.135Z,46.90
2017-07-23T19:16:00.574Z,47.00
2017-07-23T19:18:27.001Z,44.90
2017-07-23T19:20:54.113Z,46.30
2017-07-23T19:23:21.252Z,46.90
2017-07-23T19:25:47.615Z,46.90
2017-07-23T19:28:13.961Z,48.20
2017-07-23T19:30:40.336Z,46.30
2017-07-23T19:33:06.896Z,46.20
2017-07-23T19:35:33.483Z,46.10
2017-07-23T19:38:01.600Z,46.00
2017-07-23T19:40:28.312Z,45.90
2017-07-23T19:42:54.883Z,47.70
2017-07-23T19:45:21.448Z,46.20
2017-07-23T19:47:48.050Z,47.40
2017-07-23T19:50:14.650Z,47.10
2017-07-23T19:52:45.910Z,46.70
2017-07-23T19:55:13.361Z,47.80
2017-07-23T19:57:39.896Z,48.20
2017-07-23T20:00:06.514Z,47.50
2017-07-23T20:02:33.100Z,47.30
2017-07-23T20:04:59.756Z,47.90
2017-07-23T20:07:26.450Z,48.00
2017-07-23T20:09:53.784Z,49.70
2017-07-23T20:12:20.398Z,49.40
2017-07-23T20:14:47.041Z,48.90
2017-07-23T20:17:13.628Z,51.40
2017-07-23T20:19:40.985Z,49.70
2017-07-23T20:22:09.318Z,49.20
2017-07-23T20:24:35.688Z,49.10
2017-07-23T20:27:02.041Z,50.20
2017-07-23T20:29:28.540Z,48.40
2017-07-23T20:31:55.106Z,48.90
2017-07-23T20:34:21.732Z,48.00
2017-07-23T20:36:48.268Z,47.70
2017-07-23T20:39:14.881Z,48.60
2017-07-23T20:41:42.260Z,48.30
2017-07-23T20:44:08.755Z,48.20
2017-07-23T20:46:35.876Z,50.20
2017-07-23T20:49:02.270Z,50.10
2017-07-23T20:51:28.656Z,49.50
2017-07-23T20:54:00.115Z,49.80
2017-07-23T20:56:26.460Z,49.80
2017-07-23T20:58:52.792Z,51.20
2017-07-23T21:01:19.153Z,49.80
2017-07-23T21:03:45.503Z,49.80
2017-07-23T21:06:11.858Z,49.80
2017-07-23T21:08:42.944Z,49.80
2017-07-23T21:11:09.285Z,50.40
2017-07-23T21:13:35.680Z,51.30
2017-07-23T21:16:02.026Z,49.70
2017-07-23T21:18:28.419Z,51.40
2017-07-23T21:20:54.853Z,50.80
2017-07-23T21:23:24.354Z,51.60
2017-07-23T21:25:51.443Z,50.90
2017-07-23T21:28:17.811Z,50.90
2017-07-23T21:30:44.159Z,50.80
2017-07-23T21:33:10.563Z,50.90
2017-07-23T21:35:37.679Z,52.40
2017-07-23T21:38:04.226Z,51.60
2017-07-23T21:40:30.591Z,51.20
2017-07-23T21:42:57.668Z,51.50
2017-07-23T21:45:24.012Z,51.50
2017-07-23T21:47:50.376Z,51.70
2017-07-23T21:50:17.450Z,52.60
2017-07-23T21:52:43.781Z,51.80
2017-07-23T21:55:10.112Z,52.00
2017-07-23T21:57:36.518Z,51.90
2017-07-23T22:00:02.886Z,51.50
2017-07-23T22:02:29.240Z,51.40
2017-07-23T22:04:55.602Z,52.40
2017-07-23T22:07:21.944Z,52.60
2017-07-23T22:09:48.391Z,52.80
2017-07-23T22:12:14.770Z,52.00
2017-07-23T22:14:41.116Z,52.20
2017-07-23T22:17:07.461Z,52.40
2017-07-23T22:19:34.624Z,52.70
2017-07-23T22:22:01.717Z,52.90
2017-07-23T22:24:28.107Z,52.90
2017-07-23T22:26:54.511Z,53.10
2017-07-23T22:29:21.610Z,52.80
2017-07-23T22:31:47.936Z,52.70
2017-07-23T22:34:14.290Z,52.90
2017-07-23T22:36:40.633Z,53.60
2017-07-23T22:39:07.150Z,52.60
2017-07-23T22:41:33.532Z,52.20
2017-07-23T22:44:00.629Z,52.10
2017-07-23T22:46:26.984Z,52.10
2017-07-23T22:48:53.388Z,52.80
2017-07-23T22:51:19.722Z,53.70
2017-07-23T22:53:46.120Z,52.60
2017-07-23T22:56:18.516Z,52.90
2017-07-23T22:58:44.856Z,52.70
2017-07-23T23:01:11.194Z,52.70
2017-07-23T23:03:37.528Z,52.20
2017-07-23T23:06:03.914Z,52.30
2017-07-23T23:08:30.324Z,53.00
2017-07-23T23:10:56.648Z,53.00
2017-07-23T23:13:23.044Z,53.70
2017-07-23T23:15:50.689Z,52.90
2017-07-23T23:18:17.043Z,53.00
2017-07-23T23:20:43.407Z,52.70
2017-07-23T23:23:09.740Z,52.60
2017-07-23T23:25:36.064Z,53.00
2017-07-23T23:28:03.165Z,52.50
2017-07-23T23:30:34.393Z,52.30
2017-07-23T23:33:00.806Z,52.60
2017-07-23T23:35:27.141Z,53.50
2017-07-23T23:37:53.469Z,53.30
2017-07-23T23:40:19.827Z,52.40
2017-07-23T23:42:46.209Z,53.20
2017-07-23T23:45:12.608Z,52.10
2017-07-23T23:47:38.944Z,52.10
2017-07-23T23:50:05.302Z,52.60
2017-07-23T23:52:31.675Z,52.60
2017-07-23T23:54:58.016Z,52.20
2017-07-23T23:57:24.376Z,53.20
2017-07-23T23:59:50.720Z,52.60
